Terminal Aerodrome Forecast
Issued by NWS

Home | Current Version | Previous Version | Text Only | Print | Product List | Glossary On
Versions: 1 2 3 4 5 6 7 8 9 10 11 12 13 14 15 16 17 18 19 20 21 22 23 24
000
FTUS43 KIND 011310 AAA
TAFHUF
TAF AMD
KHUF 011310Z 0113/0212 20003KT P6SM VCTS SCT050CB BKN100
     FM011600 22007KT P6SM SCT025 SCT250
     FM020100 21004KT P6SM FEW250
     FM020700 00000KT 4SM BR SCT060 SCT250=

USA.gov is the U.S. government's official web portal to all federal, state and local government web resources and services.